Time;durP1;ratioP1;P1;durP2;ratioP2;P2;SDS_P1;SDS_P2;PMS_P1;PMS_P2;Temp;Humidity;BMP_temperature;BMP_pressure;BME280_temperature;BME280_humidity;BME280_pressure;Samples;Min_cycle;Max_cycle;Signal;HPM_P1;HPM_P2
2022/05/23 00:01:30;;;;;;;17.23;10.35;;;26.50;99.90;;;;;;1855151;75;21063;-90
2022/05/23 00:04:01;;;;;;;15.98;9.63;;;26.50;99.90;;;;;;1858956;75;21176;-91
2022/05/23 00:06:32;;;;;;;15.10;9.73;;;26.40;99.90;;;;;;1812200;77;21619;-91
2022/05/23 00:09:04;;;;;;;17.95;9.53;;;26.50;99.90;;;;;;1789775;79;21168;-90
2022/05/23 00:11:34;;;;;;;15.00;8.85;;;26.50;99.90;;;;;;1866176;76;21167;-90
2022/05/23 00:14:12;;;;;;;17.23;9.18;;;26.60;99.90;;;;;;1871222;74;21600;-91
2022/05/23 00:16:45;;;;;;;15.65;8.58;;;26.50;99.90;;;;;;1869607;76;21686;-91
2022/05/23 00:19:19;;;;;;;15.30;8.45;;;26.50;99.90;;;;;;1865293;76;21173;-90
2022/05/23 00:21:50;;;;;;;14.58;9.55;;;26.60;99.90;;;;;;1861337;76;21084;-90
2022/05/23 00:24:21;;;;;;;14.60;8.50;;;26.50;99.90;;;;;;1826075;77;21099;-91
2022/05/23 00:26:55;;;;;;;13.28;8.70;;;26.60;99.90;;;;;;1854957;75;21229;-90
2022/05/23 00:29:26;;;;;;;15.18;8.83;;;26.60;99.90;;;;;;1850657;76;21131;-90
2022/05/23 00:37:03;;;;;;;21.00;8.55;;;26.60;99.90;;;;;;1856125;74;21209;-91
2022/05/23 00:39:34;;;;;;;15.65;8.08;;;26.80;99.90;;;;;;1881953;73;21091;-91
2022/05/23 00:44:41;;;;;;;15.93;8.40;;;26.70;99.90;;;;;;1816261;75;21155;-91
2022/05/23 00:47:14;;;;;;;12.23;8.43;;;26.80;99.90;;;;;;1856127;74;21088;-93
2022/05/23 00:49:45;;;;;;;17.37;8.98;;;27.00;99.90;;;;;;1802795;76;21194;-91
2022/05/23 00:52:19;;;;;;;13.35;8.08;;;26.90;99.90;;;;;;1801393;77;21182;-91
2022/05/23 00:54:52;;;;;;;12.53;8.00;;;27.00;99.90;;;;;;1824766;76;21152;-90
2022/05/23 00:57:25;;;;;;;13.83;8.10;;;27.10;99.90;;;;;;1836786;77;21085;-90
2022/05/23 00:59:58;;;;;;;13.53;7.83;;;27.10;99.90;;;;;;1840687;77;21189;-91
2022/05/23 01:02:30;;;;;;;15.93;8.33;;;27.00;99.90;;;;;;1830264;77;21135;-91
2022/05/23 01:05:01;;;;;;;12.78;7.60;;;27.20;99.90;;;;;;1869784;76;21170;-91
2022/05/23 01:07:33;;;;;;;15.28;7.37;;;27.20;99.90;;;;;;1866022;76;21609;-91
2022/05/23 01:10:06;;;;;;;12.70;7.90;;;27.30;99.90;;;;;;1815456;77;21213;-90
2022/05/23 01:12:39;;;;;;;16.73;6.97;;;27.30;99.90;;;;;;1816514;77;21611;-90
2022/05/23 01:15:12;;;;;;;10.98;7.35;;;27.30;99.90;;;;;;1818984;77;21108;-90
2022/05/23 01:17:43;;;;;;;12.07;7.40;;;27.50;99.90;;;;;;1814556;77;21126;-90
2022/05/23 01:20:15;;;;;;;16.02;8.18;;;27.60;99.90;;;;;;1841417;77;21109;-91
2022/05/23 01:22:48;;;;;;;16.15;7.22;;;27.60;99.90;;;;;;1807535;78;21093;-88
2022/05/23 01:25:21;;;;;;;12.88;6.95;;;27.70;99.90;;;;;;1831370;77;21111;-89
2022/05/23 01:27:54;;;;;;;14.28;6.87;;;27.70;99.90;;;;;;1821595;77;21171;-90
2022/05/23 01:30:25;;;;;;;13.68;6.97;;;27.90;99.90;;;;;;1844078;77;21151;-90
2022/05/23 01:32:56;;;;;;;11.35;6.80;;;27.90;99.90;;;;;;1833128;77;21423;-89
2022/05/23 01:35:27;;;;;;;15.35;7.72;;;27.90;99.90;;;;;;1845055;77;21423;-91
2022/05/23 01:37:58;;;;;;;17.42;7.30;;;28.00;99.90;;;;;;1834075;77;21108;-90
2022/05/23 01:40:32;;;;;;;13.85;7.50;;;28.00;99.90;;;;;;1838921;77;21241;-91
2022/05/23 01:43:04;;;;;;;14.85;7.25;;;28.00;99.90;;;;;;1800208;78;21170;-90
2022/05/23 01:45:38;;;;;;;13.95;7.33;;;27.90;99.90;;;;;;1860442;74;21127;-90
2022/05/23 01:48:10;;;;;;;12.33;6.78;;;28.00;99.90;;;;;;1814380;78;21112;-91
2022/05/23 01:50:46;;;;;;;13.32;7.20;;;27.90;99.90;;;;;;1851469;77;21135;-91
2022/05/23 01:53:14;;;;;;;14.40;7.20;;;28.10;99.90;;;;;;1848094;76;21179;-88
2022/05/23 01:55:47;;;;;;;11.30;7.30;;;28.00;99.90;;;;;;1850641;76;21148;-90
2022/05/23 02:03:34;;;;;;;14.33;7.83;;;28.30;99.90;;;;;;1857637;74;21189;-91
2022/05/23 02:06:05;;;;;;;12.95;7.33;;;28.30;99.90;;;;;;1827970;77;21571;-91
2022/05/23 02:08:36;;;;;;;17.87;7.28;;;28.40;99.90;;;;;;1885324;75;21192;-84
2022/05/23 02:11:09;;;;;;;14.45;7.22;;;28.50;99.90;;;;;;1877488;75;21660;-78
2022/05/23 02:13:43;;;;;;;13.70;7.50;;;28.50;99.90;;;;;;1862804;75;21204;-78
2022/05/23 02:16:14;;;;;;;15.80;7.85;;;28.60;99.90;;;;;;1890155;75;21614;-78
2022/05/23 02:18:44;;;;;;;14.45;7.30;;;28.70;99.90;;;;;;1879440;75;21618;-72
2022/05/23 02:21:16;;;;;;;14.60;7.15;;;28.80;99.90;;;;;;1816829;78;22360;-78
2022/05/23 02:23:47;;;;;;;11.25;7.50;;;29.00;99.90;;;;;;1871674;75;22282;-77
2022/05/23 02:26:18;;;;;;;19.32;7.97;;;29.00;99.90;;;;;;1878846;75;21626;-78
2022/05/23 02:28:49;;;;;;;13.05;7.17;;;29.20;99.90;;;;;;1832735;77;21136;-77
2022/05/23 02:31:19;;;;;;;11.73;6.85;;;29.00;99.90;;;;;;1883149;75;21130;-77
2022/05/23 02:33:51;;;;;;;13.72;6.62;;;29.30;99.90;;;;;;1866734;75;21613;-79
2022/05/23 02:36:24;;;;;;;14.63;7.15;;;29.40;99.90;;;;;;1814473;79;21076;-77
2022/05/23 02:38:56;;;;;;;16.02;7.87;;;29.20;99.90;;;;;;1874670;75;21158;-78
2022/05/23 02:41:27;;;;;;;14.45;6.97;;;29.30;99.90;;;;;;1865354;75;21091;-80
2022/05/23 02:43:58;;;;;;;18.10;7.70;;;29.30;99.90;;;;;;1826259;77;21649;-78
2022/05/23 02:46:29;;;;;;;15.72;7.50;;;29.40;99.90;;;;;;1875931;76;21147;-80
2022/05/23 02:49:02;;;;;;;16.02;7.33;;;29.20;99.90;;;;;;1875818;75;21507;-79
2022/05/23 02:51:34;;;;;;;13.60;7.67;;;29.20;99.90;;;;;;1815703;77;21658;-78
2022/05/23 02:54:08;;;;;;;11.60;7.12;;;29.50;99.90;;;;;;1859922;75;21119;-79
2022/05/23 02:56:39;;;;;;;14.25;7.70;;;29.40;99.90;;;;;;1801895;78;21159;-78
2022/05/23 02:59:11;;;;;;;14.28;7.50;;;29.50;99.90;;;;;;1802573;78;21205;-78
2022/05/23 03:04:14;;;;;;;13.88;7.62;;;29.40;99.90;;;;;;1783869;79;21144;-78
2022/05/23 03:06:45;;;;;;;14.93;7.03;;;29.70;99.90;;;;;;1790480;80;21155;-77
2022/05/23 03:09:16;;;;;;;12.37;6.62;;;29.60;99.70;;;;;;1857225;77;21162;-80
2022/05/23 03:11:49;;;;;;;14.70;7.28;;;29.70;99.50;;;;;;1849288;76;21355;-79
2022/05/23 03:14:20;;;;;;;14.58;7.50;;;29.80;99.90;;;;;;1838332;77;21084;-79
2022/05/23 03:16:53;;;;;;;17.65;7.67;;;29.90;99.90;;;;;;1791751;78;21607;-78
2022/05/23 03:19:24;;;;;;;18.52;8.28;;;30.00;99.70;;;;;;1801419;78;21515;-78
2022/05/23 03:27:00;;;;;;;13.93;7.37;;;30.30;98.40;;;;;;1848646;77;21547;-79
2022/05/23 03:29:32;;;;;;;16.70;7.35;;;30.10;98.20;;;;;;1854335;77;21136;-79
2022/05/23 03:32:03;;;;;;;17.82;7.42;;;30.20;97.80;;;;;;1814444;78;21598;-78
2022/05/23 03:34:34;;;;;;;13.68;7.28;;;30.10;98.00;;;;;;1789268;80;21186;-79
2022/05/23 03:37:07;;;;;;;17.85;7.65;;;30.30;98.20;;;;;;1795974;78;21198;-78
2022/05/23 03:39:39;;;;;;;15.25;7.30;;;30.20;98.40;;;;;;1858121;77;21087;-78
2022/05/23 03:42:10;;;;;;;16.27;7.90;;;30.20;97.90;;;;;;1808922;78;21147;-79
2022/05/23 03:44:43;;;;;;;15.15;6.85;;;30.30;98.50;;;;;;1856253;76;21562;-79
2022/05/23 03:47:14;;;;;;;12.75;7.58;;;30.30;97.80;;;;;;1853428;77;21696;-79
2022/05/23 03:49:44;;;;;;;14.65;6.90;;;30.40;98.20;;;;;;1798487;78;21595;-79
2022/05/23 03:52:15;;;;;;;12.73;7.10;;;30.40;97.70;;;;;;1783179;79;21623;-77
2022/05/23 03:54:47;;;;;;;12.10;7.40;;;30.40;97.40;;;;;;1773566;79;21672;-78
2022/05/23 03:57:18;;;;;;;14.10;6.87;;;30.70;97.30;;;;;;1786995;80;21642;-79
2022/05/23 03:59:52;;;;;;;16.30;6.95;;;30.70;97.70;;;;;;1803242;78;21186;-78
2022/05/23 04:02:23;;;;;;;11.00;6.75;;;30.60;97.90;;;;;;1812138;79;21642;-79
2022/05/23 04:04:54;;;;;;;12.58;6.83;;;30.80;97.60;;;;;;1857472;77;21206;-79
2022/05/23 04:07:25;;;;;;;17.05;7.22;;;30.70;96.90;;;;;;1803424;78;21096;-78
2022/05/23 04:09:56;;;;;;;15.10;7.30;;;30.90;97.10;;;;;;1804452;78;21777;-80
2022/05/23 04:12:29;;;;;;;15.05;7.10;;;31.00;96.30;;;;;;1790810;78;21614;-79
2022/05/23 04:15:00;;;;;;;15.32;7.30;;;30.90;96.00;;;;;;1827854;77;21062;-80
2022/05/23 04:17:31;;;;;;;16.62;6.97;;;31.00;96.80;;;;;;1848515;77;21659;-78
2022/05/23 04:20:02;;;;;;;14.40;7.20;;;31.10;96.10;;;;;;1824165;77;21055;-79
2022/05/23 04:22:34;;;;;;;12.75;6.30;;;31.20;96.60;;;;;;1841390;77;21553;-78
2022/05/23 04:25:07;;;;;;;17.02;6.72;;;31.40;95.80;;;;;;1847404;77;21119;-79
2022/05/23 04:27:38;;;;;;;13.60;6.97;;;31.30;95.80;;;;;;1814292;79;21111;-79
2022/05/23 04:30:11;;;;;;;15.15;6.62;;;31.30;96.10;;;;;;1791930;79;21175;-78
2022/05/23 04:35:14;;;;;;;16.75;7.45;;;31.40;95.40;;;;;;1827326;77;21709;-78
2022/05/23 04:37:48;;;;;;;16.48;7.78;;;31.40;95.50;;;;;;1843449;77;21642;-78
2022/05/23 04:40:27;;;;;;;10.45;5.90;;;31.50;95.70;;;;;;1804520;78;21212;-79
2022/05/23 04:42:59;;;;;;;13.22;6.30;;;31.30;95.50;;;;;;1820762;78;21131;-78
2022/05/23 04:45:30;;;;;;;14.83;7.00;;;31.40;96.10;;;;;;1818747;78;21181;-78
2022/05/23 04:50:34;;;;;;;12.28;6.80;;;31.60;95.20;;;;;;1844199;77;21194;-79
2022/05/23 04:53:05;;;;;;;17.25;7.28;;;31.60;95.40;;;;;;1818270;78;21101;-78
2022/05/23 04:55:38;;;;;;;15.75;7.30;;;31.70;95.40;;;;;;1850755;76;21688;-78
2022/05/23 04:58:11;;;;;;;14.20;7.00;;;31.70;95.30;;;;;;1810654;78;21682;-79
2022/05/23 05:00:45;;;;;;;15.98;6.70;;;31.60;95.40;;;;;;1810904;78;21139;-78
2022/05/23 05:03:16;;;;;;;11.48;6.97;;;31.60;94.80;;;;;;1784985;79;21709;-78
2022/05/23 05:05:47;;;;;;;19.45;6.70;;;31.60;95.20;;;;;;1856477;77;21083;-79
2022/05/23 05:08:18;;;;;;;14.45;7.05;;;31.70;94.50;;;;;;1788279;78;21131;-78
2022/05/23 05:10:49;;;;;;;13.38;6.35;;;31.70;93.80;;;;;;1789562;80;21237;-79
2022/05/23 05:13:20;;;;;;;15.95;7.08;;;31.80;94.00;;;;;;1783570;78;21175;-79
2022/05/23 05:15:51;;;;;;;18.85;7.10;;;31.70;94.30;;;;;;1800932;79;21182;-76
2022/05/23 05:18:22;;;;;;;12.30;6.80;;;31.70;94.70;;;;;;1781410;78;21119;-75
2022/05/23 05:20:53;;;;;;;13.18;6.58;;;31.60;94.70;;;;;;1756370;80;21542;-74
2022/05/23 05:23:25;;;;;;;19.00;7.42;;;31.50;94.90;;;;;;1785311;78;21665;-77
2022/05/23 05:25:56;;;;;;;14.23;6.97;;;31.60;94.50;;;;;;1813750;77;21100;-76
2022/05/23 05:28:27;;;;;;;13.60;6.33;;;31.40;94.50;;;;;;1807924;78;21143;-76
2022/05/23 05:31:00;;;;;;;17.25;6.85;;;31.40;94.40;;;;;;1815044;77;21591;-76
2022/05/23 05:33:35;;;;;;;13.75;7.05;;;31.30;94.70;;;;;;1799454;77;21560;-76
2022/05/23 05:36:11;;;;;;;17.40;7.00;;;31.40;95.10;;;;;;1823996;77;21217;-77
2022/05/23 05:38:46;;;;;;;15.75;6.87;;;31.20;95.00;;;;;;1809005;78;21167;-76
2022/05/23 05:41:20;;;;;;;16.85;7.20;;;31.10;95.20;;;;;;1814661;77;21994;-77
2022/05/23 05:43:54;;;;;;;11.83;6.65;;;31.20;95.50;;;;;;1824948;77;21621;-75
2022/05/23 05:46:27;;;;;;;14.75;6.87;;;31.20;95.40;;;;;;1793093;78;21209;-76
2022/05/23 05:49:01;;;;;;;17.42;7.70;;;31.00;95.60;;;;;;1818172;77;21759;-77
2022/05/23 05:51:36;;;;;;;17.67;7.33;;;31.10;95.20;;;;;;1800141;78;21183;-77
2022/05/23 05:54:10;;;;;;;21.80;7.83;;;31.00;95.60;;;;;;1820840;77;21206;-75
2022/05/23 05:56:45;;;;;;;17.37;7.78;;;31.00;95.20;;;;;;1827543;77;22300;-75
2022/05/23 05:59:16;;;;;;;16.85;7.20;;;31.00;95.70;;;;;;1847130;76;21645;-75
2022/05/23 06:01:52;;;;;;;18.42;6.92;;;31.00;95.30;;;;;;1803188;78;21630;-75
2022/05/23 06:04:23;;;;;;;13.13;7.65;;;31.00;95.40;;;;;;1854650;76;21572;-76
2022/05/23 06:11:59;;;;;;;17.95;7.83;;;31.10;96.10;;;;;;1846693;76;21168;-75
2022/05/23 06:14:30;;;;;;;17.55;7.05;;;31.10;95.30;;;;;;1849954;77;21180;-76
2022/05/23 06:17:10;;;;;;;18.65;8.28;;;31.10;95.30;;;;;;1795427;79;21143;-76
2022/05/23 06:19:43;;;;;;;14.35;7.55;;;31.20;95.80;;;;;;1793983;79;21618;-75
2022/05/23 06:22:16;;;;;;;10.63;6.78;;;31.10;95.30;;;;;;1852975;75;21101;-75
2022/05/23 06:24:49;;;;;;;19.82;8.28;;;31.30;95.20;;;;;;1860900;75;21136;-74
2022/05/23 06:27:20;;;;;;;17.00;7.45;;;31.00;95.00;;;;;;1862687;75;21180;-73
2022/05/23 06:29:50;;;;;;;19.60;8.08;;;31.10;95.10;;;;;;1855221;75;21153;-74
2022/05/23 06:32:24;;;;;;;17.25;8.33;;;31.00;95.50;;;;;;1859725;75;21156;-75
2022/05/23 06:34:55;;;;;;;17.85;7.28;;;31.10;95.40;;;;;;1856546;76;21152;-74
2022/05/23 06:37:27;;;;;;;17.50;7.35;;;31.00;95.50;;;;;;1812842;78;21191;-74
2022/05/23 06:39:58;;;;;;;16.05;7.45;;;31.10;95.30;;;;;;1854693;76;21125;-74
2022/05/23 06:42:29;;;;;;;18.65;7.65;;;31.10;95.30;;;;;;1867383;75;21121;-74
2022/05/23 06:45:02;;;;;;;14.75;8.03;;;31.10;95.10;;;;;;1864851;76;21116;-75
2022/05/23 06:47:33;;;;;;;18.17;7.62;;;31.00;95.60;;;;;;1852174;76;21179;-75
2022/05/23 06:50:04;;;;;;;22.30;7.97;;;31.20;95.00;;;;;;1857019;76;21180;-74
2022/05/23 06:52:42;;;;;;;23.07;8.00;;;31.20;95.00;;;;;;1790533;78;21693;-76
2022/05/23 06:55:15;;;;;;;19.20;8.73;;;31.20;95.30;;;;;;1839479;76;21134;-75
2022/05/23 06:57:46;;;;;;;19.67;8.05;;;31.20;95.10;;;;;;1850667;76;21136;-75
2022/05/23 07:00:18;;;;;;;20.85;8.45;;;31.20;94.70;;;;;;1850102;77;21106;-74
2022/05/23 07:02:49;;;;;;;18.02;7.97;;;31.30;94.80;;;;;;1828741;77;21143;-74
2022/05/23 07:12:58;;;;;;;16.02;6.80;;;31.40;94.60;;;;;;1851076;76;21573;-73
2022/05/23 07:15:35;;;;;;;17.55;7.25;;;31.30;94.40;;;;;;1828332;77;21099;-75
2022/05/23 07:18:03;;;;;;;23.83;7.70;;;31.40;94.30;;;;;;1818048;76;21737;-73
2022/05/23 07:20:40;;;;;;;20.30;7.85;;;31.30;94.30;;;;;;1815493;77;21202;-74
2022/05/23 07:23:14;;;;;;;17.90;8.05;;;31.40;94.40;;;;;;1852256;76;21201;-74
2022/05/23 07:25:45;;;;;;;20.62;8.13;;;31.40;94.50;;;;;;1847641;75;21181;-75
2022/05/23 07:28:16;;;;;;;21.68;8.05;;;31.50;94.10;;;;;;1856985;76;21065;-75
2022/05/23 07:30:48;;;;;;;20.37;8.05;;;31.50;93.90;;;;;;1851106;76;21668;-74
2022/05/23 07:33:19;;;;;;;20.88;7.30;;;31.60;94.00;;;;;;1861403;76;21624;-75
2022/05/23 07:35:54;;;;;;;18.30;7.47;;;31.60;94.00;;;;;;1847015;76;21266;-76
2022/05/23 07:38:25;;;;;;;16.52;7.33;;;31.70;94.00;;;;;;1855237;76;21173;-75
2022/05/23 07:40:58;;;;;;;15.98;6.83;;;31.70;94.00;;;;;;1819217;77;21090;-76
2022/05/23 07:43:35;;;;;;;18.70;7.90;;;31.70;94.70;;;;;;1817693;77;21159;-75
2022/05/23 07:46:12;;;;;;;20.02;7.90;;;31.70;93.70;;;;;;1801922;79;21654;-74
2022/05/23 07:48:41;;;;;;;14.73;7.60;;;31.90;93.90;;;;;;1852869;74;21162;-74
2022/05/23 07:51:14;;;;;;;15.05;7.47;;;31.70;93.50;;;;;;1827858;77;21216;-76
2022/05/23 08:01:27;;;;;;;19.10;7.58;;;31.70;93.10;;;;;;1851496;75;21145;-75
2022/05/23 08:03:58;;;;;;;19.07;6.87;;;31.80;92.90;;;;;;1851416;76;21689;-75
2022/05/23 08:06:31;;;;;;;18.55;7.95;;;31.90;93.60;;;;;;1831967;77;21139;-74
2022/05/23 08:09:03;;;;;;;17.87;7.20;;;31.80;93.70;;;;;;1809663;77;21254;-74
2022/05/23 08:11:40;;;;;;;16.40;6.62;;;31.70;93.10;;;;;;1822803;77;21587;-76
2022/05/23 08:14:16;;;;;;;18.73;7.33;;;31.80;93.40;;;;;;1817955;77;21189;-76
2022/05/23 08:16:47;;;;;;;17.20;7.95;;;31.80;93.50;;;;;;1813493;77;21142;-75
2022/05/23 08:19:28;;;;;;;;;;;;;;;;;;;;;
2022/05/23 08:22:00;;;;;;;17.82;7.35;;;31.80;93.20;;;;;;1849446;76;21146;-74
2022/05/23 08:24:33;;;;;;;19.82;7.90;;;31.80;93.10;;;;;;1847946;76;21173;-75
2022/05/23 08:27:06;;;;;;;16.30;7.28;;;31.80;93.40;;;;;;1855061;75;21155;-74
2022/05/23 08:29:37;;;;;;;21.42;7.85;;;31.70;93.20;;;;;;1844438;76;21149;-75
2022/05/23 08:32:11;;;;;;;20.02;7.25;;;31.80;93.40;;;;;;1853388;76;21628;-75
2022/05/23 08:34:43;;;;;;;16.48;6.83;;;31.70;93.40;;;;;;1815966;77;21197;-74
2022/05/23 08:37:14;;;;;;;21.23;7.47;;;31.80;93.60;;;;;;1825056;77;21134;-76
2022/05/23 08:39:47;;;;;;;19.07;6.60;;;31.70;93.70;;;;;;1827892;77;21136;-75
2022/05/23 08:42:18;;;;;;;20.40;7.58;;;31.70;93.60;;;;;;1855463;76;21114;-74
2022/05/23 08:44:52;;;;;;;17.52;7.25;;;31.90;93.60;;;;;;1852101;76;21135;-77
2022/05/23 08:47:26;;;;;;;15.55;6.72;;;31.80;93.60;;;;;;1851999;76;21196;-76
2022/05/23 08:49:58;;;;;;;21.75;7.17;;;31.70;94.10;;;;;;1852668;76;21678;-78
2022/05/23 08:52:33;;;;;;;16.77;7.00;;;31.80;93.90;;;;;;1855730;76;21789;-74
2022/05/23 08:55:08;;;;;;;11.85;6.92;;;31.70;93.60;;;;;;1852853;76;21212;-75
2022/05/23 08:57:41;;;;;;;14.95;6.33;;;31.80;93.50;;;;;;1853646;76;21111;-75
2022/05/23 09:00:15;;;;;;;16.97;6.70;;;31.70;93.80;;;;;;1855972;75;21153;-76
2022/05/23 09:02:48;;;;;;;19.67;7.03;;;31.60;93.70;;;;;;1861789;75;21158;-75
2022/05/23 09:05:22;;;;;;;16.82;7.03;;;31.60;94.00;;;;;;1860332;75;21311;-77
2022/05/23 09:07:57;;;;;;;15.83;6.92;;;31.50;93.80;;;;;;1850373;75;21960;-74
2022/05/23 09:10:30;;;;;;;25.17;7.12;;;31.50;93.90;;;;;;1858432;75;21626;-76
2022/05/23 09:13:01;;;;;;;15.78;6.60;;;31.50;94.20;;;;;;1862719;75;22113;-75
2022/05/23 09:15:33;;;;;;;15.80;6.97;;;31.70;94.50;;;;;;1857714;75;21128;-75
2022/05/23 09:18:07;;;;;;;23.00;6.78;;;31.50;93.80;;;;;;1816667;77;22198;-77
2022/05/23 09:20:40;;;;;;;17.98;7.53;;;31.60;94.00;;;;;;1861507;75;21211;-74
2022/05/23 09:23:14;;;;;;;15.08;7.03;;;31.60;93.90;;;;;;1859361;75;21212;-77
2022/05/23 09:25:47;;;;;;;15.05;6.67;;;31.70;94.00;;;;;;1820006;77;21292;-73
2022/05/23 09:28:21;;;;;;;18.25;6.90;;;31.60;93.80;;;;;;1858928;75;21672;-74
2022/05/23 09:30:56;;;;;;;17.57;7.00;;;31.60;93.50;;;;;;1860704;75;21087;-74
2022/05/23 09:33:30;;;;;;;20.02;6.83;;;31.60;93.70;;;;;;1856711;75;21654;-75
2022/05/23 09:36:03;;;;;;;19.27;6.83;;;31.70;93.20;;;;;;1831545;77;21139;-75
2022/05/23 09:38:35;;;;;;;18.67;7.42;;;31.40;93.60;;;;;;1837570;76;21690;-74
2022/05/23 09:41:07;;;;;;;20.25;7.45;;;31.40;93.60;;;;;;1839882;76;21267;-74
2022/05/23 09:48:52;;;;;;;18.50;7.42;;;31.30;93.70;;;;;;1857418;75;21199;-74
2022/05/23 09:51:23;;;;;;;18.32;6.45;;;31.40;94.10;;;;;;1855740;75;21297;-75
2022/05/23 09:53:54;;;;;;;18.23;6.15;;;31.40;94.00;;;;;;1859494;75;21108;-75
2022/05/23 09:56:28;;;;;;;17.70;6.65;;;31.30;94.00;;;;;;1855511;75;21149;-76
2022/05/23 09:59:02;;;;;;;23.15;7.42;;;31.30;94.00;;;;;;1858194;75;21593;-75
2022/05/23 10:01:35;;;;;;;18.25;6.62;;;31.30;94.10;;;;;;1826417;77;21621;-75
2022/05/23 10:04:08;;;;;;;16.35;6.55;;;31.30;94.20;;;;;;1788225;78;21181;-76
2022/05/23 10:06:46;;;;;;;18.98;6.85;;;31.20;94.20;;;;;;1785318;79;21501;-77
2022/05/23 10:09:17;;;;;;;16.80;9.73;;;31.20;94.30;;;;;;1846863;76;21143;-79
2022/05/23 10:11:50;;;;;;;14.47;7.58;;;31.40;94.40;;;;;;1852108;76;21484;-88
2022/05/23 10:14:24;;;;;;;15.03;7.40;;;31.30;94.40;;;;;;1846326;76;21151;-87
2022/05/23 10:16:58;;;;;;;15.10;7.78;;;31.20;94.30;;;;;;1805364;78;21171;-88
2022/05/23 10:19:33;;;;;;;15.68;6.92;;;31.20;94.30;;;;;;1848875;75;21604;-89
2022/05/23 10:22:10;;;;;;;14.35;7.58;;;31.20;94.60;;;;;;1845718;76;21161;-89
2022/05/23 10:24:40;;;;;;;19.30;8.10;;;31.10;94.60;;;;;;1848148;76;21223;-85
2022/05/23 10:27:17;;;;;;;12.35;6.95;;;31.10;94.60;;;;;;1847535;75;21159;-85
2022/05/23 10:29:51;;;;;;;19.25;7.85;;;31.10;94.60;;;;;;1851256;76;21140;-85
2022/05/23 10:32:26;;;;;;;16.50;6.72;;;31.10;94.80;;;;;;1859294;76;21663;-85
2022/05/23 10:35:00;;;;;;;18.30;6.92;;;31.10;94.60;;;;;;1861818;76;21137;-83
2022/05/23 10:37:32;;;;;;;20.52;7.00;;;31.20;94.80;;;;;;1829946;76;21609;-84
2022/05/23 10:42:39;;;;;;;19.15;6.78;;;31.00;94.90;;;;;;1856173;76;21647;-83
2022/05/23 10:45:12;;;;;;;22.27;6.95;;;31.00;94.80;;;;;;1858331;75;21151;-85
2022/05/23 10:47:46;;;;;;;19.15;6.70;;;30.90;94.70;;;;;;1851251;76;21127;-85
2022/05/23 10:50:19;;;;;;;20.02;7.70;;;31.00;94.90;;;;;;1855669;76;21161;-84
2022/05/23 10:52:52;;;;;;;15.58;6.92;;;30.90;94.90;;;;;;1870476;76;21193;-85
2022/05/23 10:55:27;;;;;;;20.52;7.47;;;30.80;94.90;;;;;;1878549;75;21725;-85
2022/05/23 10:58:01;;;;;;;18.65;6.80;;;30.80;95.10;;;;;;1873752;75;21142;-84
2022/05/23 11:00:34;;;;;;;13.20;5.80;;;30.90;95.10;;;;;;1847411;75;21624;-84
2022/05/23 11:03:08;;;;;;;19.65;7.22;;;30.80;95.00;;;;;;1857719;76;21129;-85
2022/05/23 11:05:43;;;;;;;19.48;7.50;;;30.80;95.20;;;;;;1834338;77;21170;-83
2022/05/23 11:08:14;;;;;;;14.38;6.72;;;30.80;95.20;;;;;;1852231;76;21159;-86
2022/05/23 11:10:49;;;;;;;15.65;6.95;;;30.80;95.30;;;;;;1862460;76;21134;-83
2022/05/23 11:13:22;;;;;;;18.75;7.42;;;30.90;95.40;;;;;;1840649;76;21171;-83
2022/05/23 11:15:54;;;;;;;14.90;7.08;;;30.70;95.30;;;;;;1834526;76;21171;-85
2022/05/23 11:18:28;;;;;;;18.92;7.47;;;30.80;95.40;;;;;;1834835;76;21654;-84
2022/05/23 11:21:01;;;;;;;24.85;8.00;;;30.90;95.50;;;;;;1831401;76;21659;-84
2022/05/23 11:23:34;;;;;;;19.10;7.15;;;30.80;95.50;;;;;;1824640;77;21177;-85
2022/05/23 11:26:07;;;;;;;17.65;7.83;;;30.80;95.50;;;;;;1817461;76;21170;-85
2022/05/23 11:33:52;;;;;;;21.25;9.20;;;30.80;95.60;;;;;;1838296;76;21592;-84
2022/05/23 11:36:34;;;;;;;22.90;8.40;;;30.70;95.70;;;;;;1819694;77;21712;-84
2022/05/23 11:38:58;;;;;;;15.63;7.62;;;30.70;95.80;;;;;;1821209;77;21104;-85
2022/05/23 11:41:31;;;;;;;16.27;7.30;;;30.70;95.80;;;;;;1880057;76;21155;-85
2022/05/23 11:44:06;;;;;;;20.20;7.75;;;30.60;95.70;;;;;;1826102;77;21681;-84
2022/05/23 11:46:40;;;;;;;16.70;7.45;;;30.70;95.80;;;;;;1817788;77;21159;-85
2022/05/23 11:49:12;;;;;;;17.75;7.42;;;30.60;95.80;;;;;;1866005;75;21173;-84
2022/05/23 11:51:46;;;;;;;22.25;7.95;;;30.70;95.90;;;;;;1829677;76;21182;-84
2022/05/23 11:54:19;;;;;;;16.95;8.15;;;30.70;95.90;;;;;;1831813;77;21055;-83
2022/05/23 11:56:52;;;;;;;18.17;8.45;;;30.80;95.90;;;;;;1855040;76;21152;-84
2022/05/23 11:59:24;;;;;;;14.53;7.62;;;30.60;95.90;;;;;;1865799;76;21164;-84
2022/05/23 12:01:58;;;;;;;22.02;8.23;;;30.60;95.90;;;;;;1864251;76;21155;-83
2022/05/23 12:04:30;;;;;;;19.15;8.58;;;30.50;95.90;;;;;;1858607;75;21217;-85
2022/05/23 12:07:02;;;;;;;18.27;7.97;;;30.50;96.10;;;;;;1869845;76;21120;-86
2022/05/23 12:09:38;;;;;;;21.65;8.30;;;30.60;96.00;;;;;;1871312;76;21162;-86
2022/05/23 12:12:11;;;;;;;17.55;8.18;;;30.70;96.20;;;;;;1872552;75;21189;-84
2022/05/23 12:14:41;;;;;;;22.93;8.65;;;30.50;96.10;;;;;;1879770;75;21099;-84
2022/05/23 12:17:16;;;;;;;22.22;8.25;;;30.50;96.10;;;;;;1839819;77;21092;-85
2022/05/23 12:19:49;;;;;;;19.20;8.45;;;30.60;96.10;;;;;;1870452;76;21102;-85
2022/05/23 12:22:23;;;;;;;18.48;8.10;;;30.50;96.30;;;;;;1815704;77;21264;-84
2022/05/23 12:24:56;;;;;;;18.82;8.58;;;30.50;96.70;;;;;;1824784;77;21159;-85
2022/05/23 12:27:29;;;;;;;21.97;8.00;;;30.50;96.30;;;;;;1814892;77;21095;-85
2022/05/23 12:30:02;;;;;;;22.67;8.48;;;30.40;96.30;;;;;;1820112;77;21264;-85
2022/05/23 12:32:34;;;;;;;19.70;8.25;;;30.40;96.40;;;;;;1871061;76;22099;-85
2022/05/23 12:35:07;;;;;;;18.75;8.73;;;30.40;96.30;;;;;;1850824;76;21142;-84
2022/05/23 12:37:40;;;;;;;23.00;9.65;;;30.30;96.40;;;;;;1814798;79;21241;-84
2022/05/23 12:40:14;;;;;;;19.12;8.60;;;30.50;96.60;;;;;;1808230;77;21495;-85
2022/05/23 12:42:47;;;;;;;18.95;8.98;;;30.30;96.50;;;;;;1841354;76;21164;-84
2022/05/23 12:45:19;;;;;;;20.10;8.60;;;30.50;97.10;;;;;;1850456;76;21615;-85
2022/05/23 12:47:52;;;;;;;15.00;8.58;;;30.50;96.70;;;;;;1847760;76;21151;-84
2022/05/23 12:50:24;;;;;;;19.70;8.80;;;30.50;96.80;;;;;;1808133;79;21164;-84
2022/05/23 12:52:57;;;;;;;18.07;8.68;;;30.30;96.70;;;;;;1795850;78;21603;-84
2022/05/23 12:55:34;;;;;;;19.35;8.75;;;30.20;96.70;;;;;;1791332;78;21139;-86
2022/05/23 12:58:04;;;;;;;16.05;7.90;;;30.30;96.80;;;;;;1823832;77;21182;-86
2022/05/23 13:00:41;;;;;;;18.05;8.40;;;30.20;96.70;;;;;;1841718;76;21249;-88
2022/05/23 13:03:15;;;;;;;17.07;7.20;;;30.20;96.70;;;;;;1847503;76;21205;-87
2022/05/23 13:05:48;;;;;;;19.35;7.92;;;30.30;96.80;;;;;;1817362;76;21174;-87
2022/05/23 13:08:22;;;;;;;17.20;7.08;;;30.40;96.80;;;;;;1793637;79;22251;-85
2022/05/23 13:10:56;;;;;;;19.02;8.40;;;30.40;96.70;;;;;;1832441;77;21125;-86
2022/05/23 13:13:29;;;;;;;19.57;8.45;;;30.20;96.70;;;;;;1823549;77;21323;-86
2022/05/23 13:16:03;;;;;;;18.25;8.00;;;30.20;96.70;;;;;;1845034;76;21143;-87
2022/05/23 13:23:46;;;;;;;18.55;7.53;;;30.20;96.80;;;;;;1833022;77;21700;-86
2022/05/23 13:26:17;;;;;;;18.55;7.85;;;30.20;96.80;;;;;;1815876;77;21763;-87
2022/05/23 13:28:53;;;;;;;16.27;7.00;;;30.20;96.90;;;;;;1845681;76;21052;-85
2022/05/23 13:31:26;;;;;;;13.72;7.05;;;30.20;96.80;;;;;;1849116;77;21075;-86
2022/05/23 13:33:59;;;;;;;16.27;7.35;;;30.10;96.80;;;;;;1848183;77;21567;-86
2022/05/23 13:36:33;;;;;;;16.25;7.58;;;30.10;96.90;;;;;;1851253;76;21151;-86
2022/05/23 13:39:06;;;;;;;15.50;7.87;;;30.00;96.80;;;;;;1814237;77;21177;-86
2022/05/23 13:41:37;;;;;;;15.43;7.65;;;30.00;97.00;;;;;;1851590;76;21195;-84
2022/05/23 13:44:09;;;;;;;16.80;7.83;;;30.00;97.00;;;;;;1839326;76;21220;-87
2022/05/23 13:46:42;;;;;;;15.40;8.05;;;30.00;97.00;;;;;;1851521;76;21181;-86
2022/05/23 13:49:16;;;;;;;12.90;7.08;;;30.00;97.10;;;;;;1855227;74;21120;-87
2022/05/23 13:51:51;;;;;;;17.70;7.25;;;30.00;97.10;;;;;;1819910;74;21091;-87
2022/05/23 13:54:26;;;;;;;17.50;7.28;;;30.00;97.20;;;;;;1850148;74;21158;-86
2022/05/23 13:56:59;;;;;;;15.18;7.25;;;30.10;97.30;;;;;;1829238;74;21183;-86
2022/05/23 13:59:32;;;;;;;17.52;8.10;;;30.00;97.30;;;;;;1848667;73;21428;-87
2022/05/23 14:02:06;;;;;;;15.50;7.08;;;30.00;97.40;;;;;;1857473;74;21070;-87
2022/05/23 14:04:40;;;;;;;19.77;7.05;;;29.90;97.40;;;;;;1824076;77;21141;-87
2022/05/23 14:07:14;;;;;;;13.32;7.00;;;29.90;97.40;;;;;;1792840;77;21496;-86
2022/05/23 14:09:48;;;;;;;17.52;7.35;;;30.00;97.50;;;;;;1809803;77;21227;-87